Time;durP1;ratioP1;P1;durP2;ratioP2;P2;SDS_P1;SDS_P2;PMS_P1;PMS_P2;Temp;Humidity;BMP_temperature;BMP_pressure;BME280_temperature;BME280_humidity;BME280_pressure;Samples;Min_cycle;Max_cycle;Signal;HPM_P1;HPM_P2
2022/07/14 00:03:17;;;;;;;3.95;2.53;;;;;;;25.28;46.18;99993.75;12218186;19;20010;-82
2022/07/14 00:07:19;;;;;;;6.00;2.75;;;;;;;25.20;46.28;99994.69;12227446;19;20392;-83
2022/07/14 00:11:21;;;;;;;4.50;2.43;;;;;;;25.10;46.81;99986.56;12204501;19;20502;-84
2022/07/14 00:15:23;;;;;;;4.40;2.50;;;;;;;24.99;47.52;99998.28;12229859;19;20107;-82
2022/07/14 00:19:24;;;;;;;2.80;2.33;;;;;;;24.86;48.18;99982.44;12226014;19;20472;-83
2022/07/14 00:23:26;;;;;;;9.10;2.77;;;;;;;24.74;49.07;99996.44;12203457;19;20011;-84
2022/07/14 00:27:28;;;;;;;4.05;2.17;;;;;;;24.61;49.14;99991.88;12236308;19;20664;-83
2022/07/14 00:31:29;;;;;;;6.18;2.78;;;;;;;24.46;49.80;100001.72;12226653;19;20014;-83
2022/07/14 00:35:31;;;;;;;6.03;2.70;;;;;;;24.33;50.52;100000.75;12206805;19;20010;-83
2022/07/14 00:39:54;;;;;;;7.75;2.72;;;;;;;24.21;50.28;99998.66;12225718;19;20014;-81
2022/07/14 00:43:54;;;;;;;4.65;2.55;;;;;;;24.08;51.25;99992.06;12222978;19;20018;-82
2022/07/14 00:47:56;;;;;;;3.42;2.40;;;;;;;23.95;51.02;99995.91;12204489;19;20010;-82
2022/07/14 00:51:57;;;;;;;3.47;2.40;;;;;;;23.82;51.60;99991.31;12229606;19;20021;-83
2022/07/14 00:55:59;;;;;;;3.92;2.50;;;;;;;23.69;51.90;99990.31;12226983;19;20017;-82
2022/07/14 01:00:03;;;;;;;6.13;2.55;;;;;;;23.56;51.92;99997.78;12203690;19;20014;-82
2022/07/14 01:04:05;;;;;;;4.18;2.00;;;;;;;23.41;52.51;99979.44;12228343;19;20010;-82
2022/07/14 01:08:07;;;;;;;4.45;2.45;;;;;;;23.32;53.40;99980.56;12226880;19;20010;-84
2022/07/14 01:12:09;;;;;;;8.95;2.90;;;;;;;23.20;53.85;99984.03;12205719;19;20019;-83
2022/07/14 01:16:11;;;;;;;6.60;2.50;;;;;;;23.09;53.75;99983.56;12227650;19;20010;-83
2022/07/14 01:20:14;;;;;;;3.00;2.27;;;;;;;23.00;53.61;99971.47;12230151;19;20463;-83
2022/07/14 01:24:16;;;;;;;4.20;2.42;;;;;;;22.94;53.91;99969.97;12198725;19;20021;-83
2022/07/14 01:28:17;;;;;;;6.23;2.20;;;;;;;22.87;53.91;99978.84;12224692;19;20006;-83
2022/07/14 01:32:21;;;;;;;3.83;2.45;;;;;;;22.82;54.09;99975.41;12202846;19;20276;-82
2022/07/14 01:36:24;;;;;;;3.42;2.63;;;;;;;22.72;54.20;99966.09;12220828;19;20027;-83
2022/07/14 01:40:26;;;;;;;8.93;2.08;;;;;;;22.66;53.91;99958.97;12223080;19;20018;-85
2022/07/14 01:44:27;;;;;;;3.87;2.23;;;;;;;22.59;53.87;99950.22;12190547;19;20034;-84
2022/07/14 01:48:30;;;;;;;3.30;2.40;;;;;;;22.53;54.35;99957.16;12219406;19;20479;-84
2022/07/14 01:52:32;;;;;;;4.32;2.50;;;;;;;22.46;54.38;99954.00;12227521;19;20479;-84
2022/07/14 01:56:41;;;;;;;4.25;2.45;;;;;;;22.39;55.00;99962.06;12209175;19;20017;-84
2022/07/14 02:01:39;;;;;;;4.35;2.70;;;;;;;22.28;55.41;99962.38;12226044;19;20011;-83
2022/07/14 02:05:15;;;;;;;3.65;2.08;;;;;;;22.23;55.76;99958.88;12228752;19;20393;-84
2022/07/14 02:09:18;;;;;;;5.38;2.55;;;;;;;22.19;56.06;99952.22;12208743;19;20024;-84
2022/07/14 02:13:23;;;;;;;3.88;2.13;;;;;;;22.11;56.20;99962.25;12223458;19;20024;-83
2022/07/14 02:17:25;;;;;;;3.90;2.10;;;;;;;22.05;56.75;99955.94;12199479;19;20011;-83
2022/07/14 02:21:28;;;;;;;4.07;2.65;;;;;;;22.00;56.61;99947.66;12228219;19;20009;-83
2022/07/14 02:25:29;;;;;;;3.50;2.28;;;;;;;21.93;56.56;99946.50;12226628;19;20480;-83
2022/07/14 02:29:31;;;;;;;4.50;2.22;;;;;;;21.88;56.62;99944.66;12199464;19;20011;-83
2022/07/14 02:33:33;;;;;;;3.47;2.00;;;;;;;21.83;56.76;99933.56;12223860;19;20006;-83
2022/07/14 02:37:34;;;;;;;9.50;2.22;;;;;;;21.78;57.15;99945.75;12235394;19;20018;-82
2022/07/14 02:41:38;;;;;;;4.68;2.38;;;;;;;21.72;57.16;99943.41;12213862;19;20004;-83
2022/07/14 02:45:40;;;;;;;3.43;2.00;;;;;;;21.66;57.44;99933.47;12233195;19;20033;-83
2022/07/14 02:49:42;;;;;;;2.73;2.23;;;;;;;21.60;57.88;99938.41;12232458;19;20003;-82
2022/07/14 02:53:43;;;;;;;3.70;2.13;;;;;;;21.58;58.09;99940.69;12194818;19;20014;-83
2022/07/14 02:57:45;;;;;;;7.73;2.50;;;;;;;21.51;58.62;99952.34;12224905;19;20046;-83
2022/07/14 03:01:47;;;;;;;5.87;2.40;;;;;;;21.46;58.59;99957.25;12228875;19;20532;-83
2022/07/14 03:05:54;;;;;;;5.00;2.63;;;;;;;21.38;58.73;99956.88;12204381;19;20022;-83
2022/07/14 03:09:57;;;;;;;4.97;2.95;;;;;;;21.35;59.37;99963.06;12253738;19;20105;-83
2022/07/14 03:13:59;;;;;;;3.33;2.55;;;;;;;21.33;59.68;99967.38;12245878;19;20007;-82
2022/07/14 03:18:03;;;;;;;6.28;2.70;;;;;;;21.29;59.93;99958.75;12213965;19;20017;-83
2022/07/14 03:22:09;;;;;;;4.60;2.50;;;;;;;21.28;59.74;99954.28;12232731;19;20009;-82
2022/07/14 03:26:12;;;;;;;3.67;2.40;;;;;;;21.28;59.97;99953.47;12231467;19;20007;-82
2022/07/14 03:30:14;;;;;;;3.30;2.30;;;;;;;21.26;59.53;99936.97;12203461;19;20356;-82
2022/07/14 03:34:16;;;;;;;4.70;2.33;;;;;;;21.24;60.22;99942.06;12216843;19;20015;-83
2022/07/14 03:38:20;;;;;;;4.90;2.50;;;;;;;21.23;59.96;99946.00;12203050;19;20007;-84
2022/07/14 03:42:41;;;;;;;9.80;2.58;;;;;;;21.32;60.04;99932.88;12222858;19;20023;-84
2022/07/14 03:46:53;;;;;;;6.63;2.83;;;;;;;21.21;60.71;99945.50;12220954;19;20010;-84
2022/07/14 03:50:56;;;;;;;3.58;2.08;;;;;;;21.16;60.70;99943.66;12202867;19;20603;-84
2022/07/14 03:54:59;;;;;;;4.50;2.50;;;;;;;21.16;61.06;99935.25;12216451;19;20463;-84
2022/07/14 03:59:01;;;;;;;3.67;2.50;;;;;;;21.17;60.76;99930.47;12221411;19;20023;-83
2022/07/14 04:03:03;;;;;;;3.80;2.22;;;;;;;21.20;60.97;99937.41;12199182;19;20363;-84
2022/07/14 04:07:07;;;;;;;7.60;2.75;;;;;;;21.23;61.16;99945.19;12218489;19;20002;-82
2022/07/14 04:11:09;;;;;;;5.60;2.50;;;;;;;21.24;61.28;99942.06;12222422;19;20018;-84
2022/07/14 04:15:12;;;;;;;4.53;2.30;;;;;;;21.27;61.64;99937.81;12200628;19;20061;-84
2022/07/14 04:19:14;;;;;;;4.27;2.47;;;;;;;21.31;61.71;99936.84;12214718;19;20356;-83
2022/07/14 04:23:17;;;;;;;4.72;2.45;;;;;;;21.35;61.36;99935.03;12217909;19;20025;-83
2022/07/14 04:27:19;;;;;;;5.55;2.50;;;;;;;21.42;61.29;99926.25;12201323;19;20029;-83
2022/07/14 04:31:21;;;;;;;3.17;2.13;;;;;;;21.53;60.85;99926.78;12220953;19;20017;-83
2022/07/14 04:35:23;;;;;;;3.20;2.23;;;;;;;21.67;61.23;99921.09;12189712;19;20503;-83
2022/07/14 04:39:26;;;;;;;3.40;2.30;;;;;;;21.83;61.17;99894.28;12224959;19;20042;-84
2022/07/14 04:43:28;;;;;;;6.75;2.72;;;;;;;22.02;60.41;99899.66;12226241;19;20480;-83
2022/07/14 04:47:35;;;;;;;3.58;2.22;;;;;;;22.17;60.06;99888.03;12195464;19;20102;-84
2022/07/14 04:55:57;;;;;;;4.60;2.60;;;;;;;22.35;59.84;99888.91;12217592;19;20010;-83
2022/07/14 05:00:07;;;;;;;6.13;2.70;;;;;;;22.33;60.38;99921.25;12189748;19;20007;-82
2022/07/14 05:04:10;;;;;;;4.13;2.38;;;;;;;22.23;60.83;99954.09;12215336;19;20370;-84
2022/07/14 05:08:12;;;;;;;5.22;2.08;;;;;;;22.22;61.21;99940.34;12227035;19;20007;-83
2022/07/14 05:12:20;;;;;;;4.40;2.70;;;;;;;22.28;61.93;99919.44;12198250;19;20010;-84
2022/07/14 05:16:23;;;;;;;5.97;2.85;;;;;;;22.38;61.63;99915.50;12208650;19;20025;-84
2022/07/14 05:20:25;;;;;;;5.32;2.60;;;;;;;22.51;60.74;99915.34;12207943;19;20030;-83
2022/07/14 05:24:27;;;;;;;3.90;2.27;;;;;;;22.67;60.72;99920.50;12224429;19;20011;-84
2022/07/14 05:28:30;;;;;;;6.43;2.67;;;;;;;22.82;60.01;99928.47;12225462;19;20027;-85
2022/07/14 05:32:35;;;;;;;5.40;2.72;;;;;;;23.00;59.65;99929.34;12190800;19;20018;-85
2022/07/14 05:36:38;;;;;;;5.30;1.98;;;;;;;23.18;58.04;99930.97;12212251;19;20015;-82
2022/07/14 05:40:41;;;;;;;3.83;2.22;;;;;;;23.32;57.03;99929.97;12219323;19;20435;-85
2022/07/14 05:44:44;;;;;;;3.63;2.17;;;;;;;23.40;56.05;99929.94;12199600;19;20017;-86
2022/07/14 05:48:47;;;;;;;7.03;2.80;;;;;;;23.40;56.82;99923.50;12219267;19;20011;-85
2022/07/14 05:52:49;;;;;;;4.03;2.50;;;;;;;23.39;56.73;99914.25;12212174;19;20339;-87
2022/07/14 05:56:51;;;;;;;6.03;2.80;;;;;;;23.49;56.82;99915.88;12189323;19;20026;-87
2022/07/14 06:00:55;;;;;;;7.65;2.67;;;;;;;23.66;57.22;99917.84;12202493;19;20003;-87
2022/07/14 06:04:57;;;;;;;6.00;2.70;;;;;;;23.72;56.67;99927.78;12220044;19;20014;-87
2022/07/14 06:08:59;;;;;;;5.82;2.25;;;;;;;23.78;56.37;99931.25;12202859;19;20014;-88
2022/07/14 06:13:03;;;;;;;4.47;2.33;;;;;;;23.92;55.61;99920.59;12230706;19;20010;-87
2022/07/14 06:17:05;;;;;;;8.23;2.40;;;;;;;24.17;54.68;99930.09;12232362;19;20014;-87
2022/07/14 06:21:08;;;;;;;6.13;2.35;;;;;;;24.31;53.15;99921.44;12210160;19;20103;-87
2022/07/14 06:25:11;;;;;;;4.47;2.50;;;;;;;24.53;52.67;99934.41;12231800;19;20002;-87
2022/07/14 06:29:13;;;;;;;5.90;2.33;;;;;;;24.61;51.91;99929.91;12241177;19;20017;-88
2022/07/14 06:33:16;;;;;;;7.13;3.10;;;;;;;24.63;51.62;99921.91;12240913;19;20011;-88
2022/07/14 06:37:20;;;;;;;5.60;2.50;;;;;;;24.64;51.88;99906.69;12252021;19;20010;-88
2022/07/14 06:41:22;;;;;;;7.28;2.63;;;;;;;24.55;51.86;99909.56;12233229;19;20006;-87
2022/07/14 06:45:25;;;;;;;4.13;2.40;;;;;;;24.37;51.87;99903.16;12249113;19;20017;-88
2022/07/14 06:49:32;;;;;;;8.65;2.95;;;;;;;24.27;52.38;99915.66;12248085;19;20474;-88
2022/07/14 06:53:34;;;;;;;5.70;2.45;;;;;;;24.19;52.51;99921.31;12220994;19;20014;-88
2022/07/14 06:57:36;;;;;;;4.63;2.45;;;;;;;24.19;52.12;99918.50;12241312;19;20026;-87
2022/07/14 07:01:38;;;;;;;3.00;2.63;;;;;;;24.44;51.20;99914.75;12238490;19;20534;-88
2022/07/14 07:10:01;;;;;;;4.90;2.35;;;;;;;24.86;50.47;99919.59;12227485;19;20007;-88
2022/07/14 07:14:03;;;;;;;7.95;2.72;;;;;;;25.08;50.17;99915.63;12223846;19;20006;-89
2022/07/14 07:18:06;;;;;;;4.40;2.92;;;;;;;25.43;50.11;99911.34;12205701;19;20006;-89
2022/07/14 07:22:08;;;;;;;2.97;2.30;;;;;;;25.87;49.21;99902.41;12227660;19;20006;-89
2022/07/14 07:26:13;;;;;;;5.13;2.22;;;;;;;26.13;48.16;99900.09;12234190;19;20026;-88
2022/07/14 07:30:15;;;;;;;6.65;2.50;;;;;;;26.23;47.36;99907.25;12209546;19;20356;-87
2022/07/14 07:34:17;;;;;;;4.20;2.78;;;;;;;26.16;47.24;99906.22;12224981;19;20018;-87
2022/07/14 07:38:19;;;;;;;6.85;2.50;;;;;;;26.31;47.15;99911.16;12230901;19;20023;-88
2022/07/14 07:42:21;;;;;;;;;;;;;;;26.53;47.03;99913.53;12209652;19;20053;-88
2022/07/14 07:46:23;;;;;;;8.70;2.50;;;;;;;26.47;46.45;99908.44;12230145;19;19919;-88
2022/07/14 07:50:25;;;;;;;3.10;2.45;;;;;;;26.57;46.23;99897.50;12216561;19;20011;-88
2022/07/14 07:54:28;;;;;;;4.13;2.42;;;;;;;26.89;46.21;99899.69;12235158;19;20008;-88
2022/07/14 07:58:50;;;;;;;6.93;2.58;;;;;;;27.05;45.98;99897.75;12222603;19;20503;-88
2022/07/14 08:02:53;;;;;;;4.75;2.75;;;;;;;27.12;45.48;99897.94;12201156;19;20033;-89
2022/07/14 08:06:56;;;;;;;4.05;2.60;;;;;;;27.19;45.05;99889.72;12227659;19;20007;-89
2022/07/14 08:10:58;;;;;;;8.10;3.22;;;;;;;27.24;44.88;99875.31;12220142;19;20022;-88
2022/07/14 08:15:00;;;;;;;5.90;2.75;;;;;;;27.56;44.52;99886.69;12206144;19;20010;-88
2022/07/14 08:19:02;;;;;;;7.80;3.15;;;;;;;27.78;43.87;99881.59;12223538;19;20649;-88
2022/07/14 08:23:04;;;;;;;6.22;3.13;;;;;;;27.72;43.99;99872.56;12225231;19;20010;-88
2022/07/14 08:27:06;;;;;;;5.50;2.80;;;;;;;27.77;43.39;99874.31;12205750;19;20464;-89
2022/07/14 08:31:08;;;;;;;8.25;3.45;;;;;;;27.88;42.84;99861.28;12219327;19;20046;-88
2022/07/14 08:35:13;;;;;;;5.38;2.80;;;;;;;28.13;43.07;99874.06;12217612;19;20498;-88
2022/07/14 08:39:16;;;;;;;8.30;3.08;;;;;;;28.40;42.42;99868.63;12192451;19;20325;-88
2022/07/14 08:43:18;;;;;;;4.75;2.75;;;;;;;28.56;41.89;99860.97;12218681;19;20006;-88
2022/07/14 08:47:20;;;;;;;13.75;4.00;;;;;;;28.79;41.13;99860.22;12223944;19;20013;-87
2022/07/14 08:51:23;;;;;;;10.73;2.92;;;;;;;28.70;40.92;99862.44;12203665;19;20003;-87
2022/07/14 08:55:25;;;;;;;5.78;2.75;;;;;;;28.75;41.20;99873.50;12223034;19;20488;-88
2022/07/14 08:59:27;;;;;;;6.43;3.08;;;;;;;28.85;40.49;99873.75;12198473;19;20002;-87
2022/07/14 09:03:30;;;;;;;5.93;3.17;;;;;;;28.88;40.96;99866.50;12223437;19;20006;-86
2022/07/14 09:08:01;;;;;;;5.20;3.38;;;;;;;28.75;40.48;99868.66;12220087;19;20074;-85
2022/07/14 09:12:05;;;;;;;9.32;3.25;;;;;;;28.43;41.01;99864.28;12202592;19;20015;-87
2022/07/14 09:16:16;;;;;;;4.75;2.83;;;;;;;29.01;40.54;99862.34;12218047;19;20010;-88
2022/07/14 09:20:20;;;;;;;8.85;2.97;;;;;;;29.46;40.07;99852.31;12224061;19;20037;-86
2022/07/14 09:24:22;;;;;;;7.63;3.40;;;;;;;29.65;39.00;99853.50;12196291;19;20015;-88
2022/07/14 09:28:26;;;;;;;7.50;3.35;;;;;;;29.64;38.26;99849.03;12213057;19;20028;-86
2022/07/14 09:32:59;;;;;;;10.68;3.38;;;;;;;29.64;38.28;99857.53;12196518;19;20026;-86
2022/07/14 09:37:17;;;;;;;7.28;3.45;;;;;;;29.75;37.90;99850.84;12223563;19;20006;-86
2022/07/14 09:41:24;;;;;;;8.90;3.13;;;;;;;29.84;37.27;99836.41;12219197;19;20736;-82
2022/07/14 09:45:33;;;;;;;8.52;2.83;;;;;;;30.05;36.87;99837.97;12181418;19;20018;-82
2022/07/14 09:49:37;;;;;;;5.43;2.50;;;;;;;29.95;37.04;99840.25;12212033;19;20126;-82
2022/07/14 09:53:59;;;;;;;5.35;3.05;;;;;;;30.26;36.88;99826.97;12178740;19;20013;-83
2022/07/14 09:58:04;;;;;;;5.93;3.03;;;;;;;30.60;35.54;99824.19;12210586;19;20021;-82
2022/07/14 10:02:08;;;;;;;6.60;2.95;;;;;;;30.66;35.17;99829.16;12233803;19;20007;-81
2022/07/14 10:06:11;;;;;;;4.85;2.75;;;;;;;30.32;35.56;99825.44;12186996;19;20034;-82
2022/07/14 10:10:34;;;;;;;;;;;;;;;29.89;36.57;99819.03;12205965;19;20010;-81
2022/07/14 10:14:38;;;;;;;4.32;2.70;;;;;;;29.96;36.00;99819.16;12186945;19;19926;-81
2022/07/14 10:18:45;;;;;;;6.13;2.95;;;;;;;30.06;36.35;99823.38;12211278;19;20007;-81
2022/07/14 10:22:48;;;;;;;10.45;3.30;;;;;;;30.13;36.20;99816.97;12202590;19;20095;-80
2022/07/14 10:26:52;;;;;;;6.95;3.17;;;;;;;30.35;36.08;99810.44;12176321;19;20031;-82
2022/07/14 10:31:23;;;;;;;6.55;3.22;;;;;;;30.37;36.22;99805.22;12188923;19;20032;-81
2022/07/14 10:35:39;;;;;;;4.53;3.50;;;;;;;30.45;36.52;99791.91;12181246;19;20027;-82
2022/07/14 10:39:48;;;;;;;6.63;3.00;;;;;;;30.74;36.20;99783.75;12193086;19;20016;-81
2022/07/14 10:44:05;;;;;;;7.60;3.22;;;;;;;31.06;35.33;99776.44;12198962;19;20014;-82
2022/07/14 10:48:34;;;;;;;7.63;3.40;;;;;;;31.40;34.96;99769.91;12181455;19;20007;-82
2022/07/14 10:52:49;;;;;;;5.00;3.08;;;;;;;31.52;34.30;99772.47;12204108;19;20017;-80
2022/07/14 10:57:09;;;;;;;8.70;3.28;;;;;;;31.44;33.73;99773.59;12178293;19;20011;-80
2022/07/14 11:01:11;;;;;;;4.65;2.83;;;;;;;31.29;34.41;99782.00;12212533;19;20003;-82
2022/07/14 11:05:14;;;;;;;7.43;3.28;;;;;;;31.32;34.02;99769.81;12211045;19;20017;-82
2022/07/14 11:09:27;;;;;;;7.10;3.00;;;;;;;31.50;33.63;99764.31;12186489;19;20059;-82
2022/07/14 11:13:31;;;;;;;6.30;3.30;;;;;;;31.64;33.52;99757.09;12204956;19;20010;-80
2022/07/14 11:17:37;;;;;;;5.40;3.03;;;;;;;31.69;33.50;99765.28;12159824;19;20030;-80
2022/07/14 11:22:14;;;;;;;4.22;3.33;;;;;;;31.55;33.69;99761.09;12208933;19;20014;-80
2022/07/14 11:26:47;;;;;;;9.20;3.33;;;;;;;31.84;33.88;99760.53;12214023;19;20007;-82
2022/07/14 11:31:14;;;;;;;7.47;3.65;;;;;;;32.13;33.35;99753.03;12186315;19;20476;-82
2022/07/14 11:39:44;;;;;;;8.30;3.60;;;;;;;33.43;31.81;99740.91;12188528;19;20016;-80
2022/07/14 11:43:50;;;;;;;5.57;3.75;;;;;;;33.62;31.31;99746.25;12212707;19;20011;-82
2022/07/14 11:47:58;;;;;;;5.07;3.83;;;;;;;33.62;30.56;99749.13;12187424;19;20076;-80
2022/07/14 11:52:02;;;;;;;8.10;4.25;;;;;;;32.86;31.67;99747.28;12215822;19;20021;-79
2022/07/14 11:56:06;;;;;;;5.90;3.90;;;;;;;31.98;33.84;99758.63;12203153;19;20122;-80
2022/07/14 12:00:10;;;;;;;7.07;4.03;;;;;;;32.03;33.57;99762.31;12191872;19;20365;-81
2022/07/14 12:04:15;;;;;;;7.47;3.45;;;;;;;31.86;34.10;99758.94;12206039;19;20006;-80
2022/07/14 12:08:36;;;;;;;5.45;4.15;;;;;;;32.05;33.61;99752.16;12207083;19;20007;-80
2022/07/14 12:12:46;;;;;;;6.85;4.32;;;;;;;32.13;33.84;99750.19;12177776;19;20013;-81
2022/07/14 12:16:48;;;;;;;7.40;3.65;;;;;;;31.91;34.40;99744.31;12204218;19;20023;-80
2022/07/14 12:20:49;;;;;;;6.10;3.83;;;;;;;31.76;34.40;99737.66;12185577;19;20070;-80
2022/07/14 12:24:51;;;;;;;6.47;4.22;;;;;;;32.00;34.33;99729.72;12211145;19;20011;-81
2022/07/14 12:28:55;;;;;;;4.45;3.72;;;;;;;33.65;32.58;99738.91;12216433;19;20020;-79
2022/07/14 12:32:57;;;;;;;5.68;3.97;;;;;;;34.58;30.72;99733.06;12180878;19;20023;-80
2022/07/14 12:37:01;;;;;;;9.25;5.05;;;;;;;35.27;29.74;99720.81;12209692;19;20141;-81
2022/07/14 12:41:03;;;;;;;8.05;4.95;;;;;;;35.27;29.92;99729.41;12201465;19;20757;-80
2022/07/14 12:45:07;;;;;;;10.60;4.80;;;;;;;34.62;30.51;99728.13;12187544;19;20010;-80
2022/07/14 12:49:09;;;;;;;8.18;4.82;;;;;;;34.16;31.25;99727.03;12204206;19;20039;-79
2022/07/14 12:53:12;;;;;;;9.00;4.43;;;;;;;34.15;31.04;99730.28;12203968;19;20361;-81
2022/07/14 12:57:20;;;;;;;5.97;4.22;;;;;;;35.13;30.38;99732.34;12179320;19;20200;-81
2022/07/14 13:01:24;;;;;;;8.55;5.10;;;;;;;36.40;27.97;99717.31;12211277;19;20531;-81
2022/07/14 13:05:27;;;;;;;5.88;4.43;;;;;;;37.03;27.67;99714.06;12187448;19;20006;-80
2022/07/14 13:09:28;;;;;;;10.10;4.20;;;;;;;37.94;26.36;99720.84;12208893;19;20010;-82
2022/07/14 13:13:37;;;;;;;7.68;4.75;;;;;;;37.51;26.06;99723.63;12204448;19;20015;-79
2022/07/14 13:17:53;;;;;;;16.35;4.88;;;;;;;36.40;25.55;99734.53;12174400;19;20007;-78
2022/07/14 13:22:05;;;;;;;4.78;4.28;;;;;;;36.16;26.50;99738.50;12207052;19;20078;-79
2022/07/14 13:26:10;;;;;;;7.30;4.10;;;;;;;36.01;25.58;99734.94;12210385;19;20487;-79
2022/07/14 13:30:14;;;;;;;5.18;3.40;;;;;;;36.02;25.96;99727.97;12178420;19;20025;-80
2022/07/14 13:34:16;;;;;;;9.55;3.83;;;;;;;37.43;23.67;99730.72;12197236;19;20011;-79
2022/07/14 13:38:18;;;;;;;9.65;3.67;;;;;;;37.99;22.79;99728.97;12197878;19;20014;-80
2022/07/14 13:42:20;;;;;;;6.15;3.70;;;;;;;38.34;22.25;99726.66;12180111;19;20105;-81
2022/07/14 13:46:22;;;;;;;5.40;3.70;;;;;;;37.80;21.92;99723.94;12208973;19;20017;-80
2022/07/14 13:54:44;;;;;;;9.35;3.40;;;;;;;35.91;23.78;99733.03;12194556;19;20011;-80
2022/07/14 13:58:45;;;;;;;7.00;3.60;;;;;;;34.52;25.02;99731.81;12203056;19;20019;-81
2022/07/14 14:07:11;;;;;;;5.80;3.20;;;;;;;32.57;26.86;99752.91;12194259;19;20102;-80
2022/07/14 14:11:13;;;;;;;6.30;2.85;;;;;;;31.75;27.04;99746.63;12205538;19;20006;-81
2022/07/14 14:15:14;;;;;;;5.20;2.70;;;;;;;31.56;26.75;99764.75;12163375;19;20038;-80
2022/07/14 14:19:18;;;;;;;8.90;2.63;;;;;;;31.03;26.84;99768.69;12205804;19;20014;-79
2022/07/14 14:23:21;;;;;;;5.43;2.33;;;;;;;30.56;27.62;99770.13;12200229;19;20049;-80
2022/07/14 14:27:23;;;;;;;7.55;2.88;;;;;;;30.26;28.18;99775.00;12183218;19;20011;-80
2022/07/14 14:31:26;;;;;;;8.13;3.30;;;;;;;30.10;27.91;99787.31;12209029;19;20093;-80
2022/07/14 14:35:28;;;;;;;6.05;2.40;;;;;;;29.44;29.35;99792.25;12189123;19;20479;-82
2022/07/14 14:39:30;;;;;;;;;;;;;;;29.14;29.53;99791.28;12211936;19;20062;-80
2022/07/14 14:43:32;;;;;;;4.80;2.22;;;;;;;29.00;29.70;99789.78;12214557;19;19915;-79
2022/07/14 14:47:35;;;;;;;4.80;2.40;;;;;;;28.80;29.65;99796.66;12190795;19;20014;-82
2022/07/14 14:51:36;;;;;;;6.47;2.65;;;;;;;28.60;30.73;99795.81;12217974;19;20022;-82
2022/07/14 14:55:38;;;;;;;6.93;2.70;;;;;;;28.66;30.66;99796.34;12211154;19;20078;-79
2022/07/14 14:59:40;;;;;;;8.32;2.47;;;;;;;28.90;30.78;99807.41;12195542;19;20007;-80
2022/07/14 15:03:41;;;;;;;5.15;2.55;;;;;;;29.25;30.51;99798.00;12220435;19;20013;-81
2022/07/14 15:07:51;;;;;;;4.60;2.75;;;;;;;29.46;30.39;99798.38;12216941;19;20015;-79
2022/07/14 15:11:53;;;;;;;7.45;2.92;;;;;;;29.38;30.34;99792.94;12194262;19;20082;-79
2022/07/14 15:15:54;;;;;;;6.20;2.95;;;;;;;29.58;30.90;99790.88;12212968;19;20380;-79
2022/07/14 15:19:56;;;;;;;7.22;2.90;;;;;;;29.49;30.83;99788.28;12208768;19;20376;-80
2022/07/14 15:23:59;;;;;;;7.30;2.90;;;;;;;29.40;31.12;99779.22;12192774;19;20007;-80
2022/07/14 15:28:01;;;;;;;5.28;2.70;;;;;;;29.37;31.19;99777.94;12207957;19;20014;-79
2022/07/14 15:32:03;;;;;;;8.05;2.65;;;;;;;29.38;31.21;99788.09;12206940;19;20023;-79
2022/07/14 15:36:05;;;;;;;;;;;;;;;29.53;31.43;99778.63;12190389;19;20020;-81
2022/07/14 15:44:28;;;;;;;7.10;2.83;;;;;;;30.17;30.37;99790.25;12183539;19;20483;-77
2022/07/14 15:48:29;;;;;;;5.75;2.78;;;;;;;29.77;31.58;99770.94;12212330;19;20010;-81
2022/07/14 15:52:31;;;;;;;6.82;2.90;;;;;;;29.84;31.56;99770.25;12213032;19;20015;-80
2022/07/14 15:56:33;;;;;;;6.30;2.78;;;;;;;29.62;31.19;99752.03;12186486;19;20728;-81
2022/07/14 16:00:34;;;;;;;5.80;2.80;;;;;;;29.57;31.36;99760.81;12210285;19;20414;-79
2022/07/14 16:04:39;;;;;;;5.35;2.80;;;;;;;29.77;30.73;99762.41;12213997;19;20482;-79
2022/07/14 16:08:41;;;;;;;6.03;2.75;;;;;;;29.71;30.48;99758.25;12192382;19;20464;-80
2022/07/14 16:12:42;;;;;;;4.22;2.33;;;;;;;29.49;30.18;99759.91;12214863;19;20011;-79
2022/07/14 16:16:44;;;;;;;6.20;2.92;;;;;;;29.12;30.33;99751.09;12212375;19;20295;-80
2022/07/14 16:20:50;;;;;;;4.05;2.83;;;;;;;28.94;30.63;99750.75;12194817;19;20031;-79
2022/07/14 16:24:52;;;;;;;5.60;2.95;;;;;;;28.76;30.85;99741.88;12195971;19;20074;-80
2022/07/14 16:28:53;;;;;;;5.53;2.28;;;;;;;28.96;29.86;99743.50;12211299;19;20027;-77
2022/07/14 16:32:55;;;;;;;3.70;2.78;;;;;;;28.84;29.77;99750.16;12182333;19;20468;-80
2022/07/14 16:36:57;;;;;;;3.67;2.50;;;;;;;28.73;29.71;99751.94;12212939;19;20098;-80
2022/07/14 16:40:58;;;;;;;6.38;2.80;;;;;;;28.88;29.44;99749.41;12205679;19;20014;-83
2022/07/14 16:45:01;;;;;;;6.82;2.72;;;;;;;29.00;28.96;99757.75;12186298;19;20572;-81
2022/07/14 16:49:03;;;;;;;9.15;3.38;;;;;;;29.14;28.63;99760.88;12205759;19;20010;-81
2022/07/14 16:53:04;;;;;;;8.38;2.90;;;;;;;29.06;28.96;99765.63;12206194;19;20028;-80
2022/07/14 16:57:06;;;;;;;5.28;2.70;;;;;;;28.88;28.78;99763.59;12181224;19;20011;-80
2022/07/14 17:01:08;;;;;;;8.35;2.30;;;;;;;28.88;29.21;99767.22;12215252;19;20097;-80
2022/07/14 17:09:30;;;;;;;4.55;2.42;;;;;;;28.48;29.26;99768.44;12191286;19;20036;-84
2022/07/14 17:13:32;;;;;;;5.75;2.50;;;;;;;28.50;29.20;99773.75;12207494;19;20006;-82
2022/07/14 17:17:34;;;;;;;9.02;3.00;;;;;;;28.18;30.13;99774.63;12194898;19;20417;-81
2022/07/14 17:21:49;;;;;;;6.55;2.42;;;;;;;27.92;30.37;99774.41;12210586;19;20119;-82
2022/07/14 17:25:51;;;;;;;7.25;2.42;;;;;;;27.75;30.54;99788.91;12212369;19;20038;-83
2022/07/14 17:29:53;;;;;;;;;;;;;;;27.61;30.61;99793.03;12183018;19;20470;-83
2022/07/14 17:33:55;;;;;;;7.32;2.55;;;;;;;27.36;30.72;99795.19;12200517;19;19915;-83
2022/07/14 17:37:56;;;;;;;4.15;2.33;;;;;;;27.37;30.64;99798.88;12203837;19;20006;-81
2022/07/14 17:41:58;;;;;;;5.47;2.15;;;;;;;27.34;30.39;99797.59;12187273;19;20010;-82
2022/07/14 17:46:00;;;;;;;7.10;2.90;;;;;;;27.53;30.39;99799.69;12205059;19;21600;-83
2022/07/14 17:50:02;;;;;;;;;;;;;;;27.49;29.85;99804.44;12210670;19;20079;-82
2022/07/14 17:54:04;;;;;;;4.53;2.80;;;;;;;27.45;29.97;99803.50;12191063;19;19974;-80
2022/07/14 17:58:24;;;;;;;4.38;2.40;;;;;;;27.23;30.48;99810.63;12206313;19;20010;-84
2022/07/14 18:02:26;;;;;;;8.02;3.40;;;;;;;27.09;30.26;99830.78;12191754;19;20089;-83
2022/07/14 18:06:28;;;;;;;12.60;3.78;;;;;;;26.88;30.68;99833.84;12214467;19;20018;-83
2022/07/14 18:10:30;;;;;;;4.93;3.23;;;;;;;26.61;30.63;99843.94;12222057;19;20490;-86
2022/07/14 18:14:32;;;;;;;7.47;3.05;;;;;;;26.23;30.93;99852.78;12189807;19;20015;-86
2022/07/14 18:18:34;;;;;;;5.07;2.67;;;;;;;26.10;31.09;99847.16;12219945;19;20010;-80
2022/07/14 18:22:38;;;;;;;3.78;2.60;;;;;;;25.95;30.97;99849.84;12213247;19;20027;-81
2022/07/14 18:26:42;;;;;;;5.18;2.50;;;;;;;25.79;31.45;99850.53;12203564;19;20452;-83
2022/07/14 18:30:44;;;;;;;5.85;2.72;;;;;;;25.72;31.54;99855.09;12217385;19;20028;-82
2022/07/14 18:34:46;;;;;;;6.88;2.78;;;;;;;25.53;31.56;99856.47;12221969;19;20017;-81
2022/07/14 18:38:48;;;;;;;8.03;3.40;;;;;;;25.35;31.89;99860.66;12191834;19;20774;-83
2022/07/14 18:42:50;;;;;;;7.65;3.17;;;;;;;25.20;32.07;99864.97;12213807;19;20829;-82
2022/07/14 18:46:55;;;;;;;7.03;2.93;;;;;;;25.12;32.30;99872.28;12224718;19;20035;-82
2022/07/14 18:50:57;;;;;;;6.25;3.00;;;;;;;25.04;32.31;99878.81;12200699;19;20479;-85
2022/07/14 18:54:59;;;;;;;6.60;3.17;;;;;;;24.93;32.59;99878.44;12216999;19;20003;-82
2022/07/14 18:59:03;;;;;;;5.43;2.38;;;;;;;24.79;32.58;99886.34;12221472;19;20351;-84
2022/07/14 19:03:05;;;;;;;5.67;2.63;;;;;;;24.72;32.88;99895.34;12197247;19;20472;-82
2022/07/14 19:07:07;;;;;;;4.53;2.25;;;;;;;24.63;33.13;99900.22;12219849;19;20392;-86
2022/07/14 19:11:12;;;;;;;6.47;2.40;;;;;;;24.54;32.94;99908.72;12225649;19;20378;-84
2022/07/14 19:15:14;;;;;;;7.63;2.70;;;;;;;24.43;33.26;99910.28;12190375;19;20697;-83
2022/07/14 19:19:16;;;;;;;12.43;2.47;;;;;;;24.21;34.44;99910.53;12209617;19;20014;-85
2022/07/14 19:23:18;;;;;;;5.20;2.70;;;;;;;24.13;34.01;99915.06;12217835;19;20354;-85
2022/07/14 19:27:20;;;;;;;4.97;2.33;;;;;;;24.00;34.28;99927.34;12197491;19;20014;-81
2022/07/14 19:31:22;;;;;;;6.60;2.78;;;;;;;23.87;34.54;99935.66;12211686;19;20019;-86